ADDS METAR Data INFO
IDs: Format: Raw Decoded Include TAF

Data at: 2036 UTC 20 Jul 2018

METAR for:KSAT (San Antonio Intl, TX, US)
Text:KSAT 201951Z 18008KT 10SM FEW250 36/19 A2994 RMK AO2 SLP118 T03610189
Temperature: 36.1°C ( 97°F)
Dewpoint: 18.9°C ( 66°F) [RH = 37%]
Pressure (altimeter):29.94 inches Hg (1014.0 mb) [Sea level pressure: 1011.8 mb]
Winds:from the S (180 degrees) at 9 MPH (8 knots; 4.1 m/s)
Visibility:10 or more sm (16+ km)
Ceiling:at least 12,000 feet AGL
Clouds: few clouds at 25000 feet AGL